sensor_id;sensor_type;location;lat;lon;timestamp;P1;durP1;ratioP1;P2;durP2;ratioP2
73747;SDS011;62056;52.130;5.428;2022-12-07T00:01:32;6.53;;;1.15;;
73747;SDS011;62056;52.130;5.428;2022-12-07T00:04:05;7.68;;;1.60;;
73747;SDS011;62056;52.130;5.428;2022-12-07T00:06:37;9.48;;;2.90;;
73747;SDS011;62056;52.130;5.428;2022-12-07T00:09:06;3.70;;;1.53;;
73747;SDS011;62056;52.130;5.428;2022-12-07T00:11:36;3.65;;;1.80;;
73747;SDS011;62056;52.130;5.428;2022-12-07T00:14:05;4.20;;;1.38;;
73747;SDS011;62056;52.130;5.428;2022-12-07T00:16:34;3.30;;;1.60;;
73747;SDS011;62056;52.130;5.428;2022-12-07T00:19:01;5.90;;;1.60;;
73747;SDS011;62056;52.130;5.428;2022-12-07T00:21:34;4.73;;;1.30;;
73747;SDS011;62056;52.130;5.428;2022-12-07T00:24:02;3.80;;;0.90;;
73747;SDS011;62056;52.130;5.428;2022-12-07T00:26:32;2.75;;;1.23;;
73747;SDS011;62056;52.130;5.428;2022-12-07T00:29:16;1.73;;;1.05;;
73747;SDS011;62056;52.130;5.428;2022-12-07T00:31:45;4.78;;;1.10;;
73747;SDS011;62056;52.130;5.428;2022-12-07T00:34:13;6.07;;;1.30;;
73747;SDS011;62056;52.130;5.428;2022-12-07T00:36:42;1.63;;;1.08;;
73747;SDS011;62056;52.130;5.428;2022-12-07T00:39:08;2.13;;;1.08;;
73747;SDS011;62056;52.130;5.428;2022-12-07T00:41:35;5.03;;;0.93;;
73747;SDS011;62056;52.130;5.428;2022-12-07T00:44:01;4.00;;;1.00;;
73747;SDS011;62056;52.130;5.428;2022-12-07T00:46:29;4.13;;;1.20;;
73747;SDS011;62056;52.130;5.428;2022-12-07T00:48:56;8.23;;;1.23;;
73747;SDS011;62056;52.130;5.428;2022-12-07T00:51:23;4.32;;;1.20;;
73747;SDS011;62056;52.130;5.428;2022-12-07T00:53:51;3.42;;;1.08;;
73747;SDS011;62056;52.130;5.428;2022-12-07T00:56:20;3.03;;;1.27;;
73747;SDS011;62056;52.130;5.428;2022-12-07T00:58:53;4.23;;;1.60;;
73747;SDS011;62056;52.130;5.428;2022-12-07T01:01:22;4.15;;;1.52;;
73747;SDS011;62056;52.130;5.428;2022-12-07T01:03:50;2.90;;;1.27;;
73747;SDS011;62056;52.130;5.428;2022-12-07T01:06:18;7.25;;;1.42;;
73747;SDS011;62056;52.130;5.428;2022-12-07T01:08:46;1.70;;;0.70;;
73747;SDS011;62056;52.130;5.428;2022-12-07T01:11:14;4.30;;;1.13;;
73747;SDS011;62056;52.130;5.428;2022-12-07T01:13:43;3.28;;;0.90;;
73747;SDS011;62056;52.130;5.428;2022-12-07T01:16:11;1.48;;;0.60;;
73747;SDS011;62056;52.130;5.428;2022-12-07T01:18:40;2.90;;;0.77;;
73747;SDS011;62056;52.130;5.428;2022-12-07T01:21:09;3.47;;;1.10;;
73747;SDS011;62056;52.130;5.428;2022-12-07T01:23:38;2.73;;;1.00;;
73747;SDS011;62056;52.130;5.428;2022-12-07T01:26:07;5.93;;;1.10;;
73747;SDS011;62056;52.130;5.428;2022-12-07T01:28:37;1.95;;;0.68;;
73747;SDS011;62056;52.130;5.428;2022-12-07T01:31:07;3.10;;;0.60;;
73747;SDS011;62056;52.130;5.428;2022-12-07T01:33:38;2.67;;;0.70;;
73747;SDS011;62056;52.130;5.428;2022-12-07T01:36:18;4.27;;;0.77;;
73747;SDS011;62056;52.130;5.428;2022-12-07T01:38:50;4.57;;;0.82;;
73747;SDS011;62056;52.130;5.428;2022-12-07T01:41:20;5.70;;;0.90;;
73747;SDS011;62056;52.130;5.428;2022-12-07T01:46:37;2.95;;;0.60;;
73747;SDS011;62056;52.130;5.428;2022-12-07T01:49:04;3.93;;;0.77;;
73747;SDS011;62056;52.130;5.428;2022-12-07T01:51:35;1.52;;;0.63;;
73747;SDS011;62056;52.130;5.428;2022-12-07T01:54:06;7.15;;;1.23;;
73747;SDS011;62056;52.130;5.428;2022-12-07T01:56:34;2.33;;;0.70;;
73747;SDS011;62056;52.130;5.428;2022-12-07T01:59:00;3.10;;;0.40;;
73747;SDS011;62056;52.130;5.428;2022-12-07T02:01:27;1.17;;;0.40;;
73747;SDS011;62056;52.130;5.428;2022-12-07T02:03:56;1.70;;;0.40;;
73747;SDS011;62056;52.130;5.428;2022-12-07T02:06:24;1.50;;;0.45;;
73747;SDS011;62056;52.130;5.428;2022-12-07T02:08:52;5.22;;;0.60;;
73747;SDS011;62056;52.130;5.428;2022-12-07T02:11:19;4.63;;;0.80;;
73747;SDS011;62056;52.130;5.428;2022-12-07T02:13:47;1.43;;;0.60;;
73747;SDS011;62056;52.130;5.428;2022-12-07T02:21:58;2.65;;;1.02;;
73747;SDS011;62056;52.130;5.428;2022-12-07T02:32:40;2.72;;;0.63;;
73747;SDS011;62056;52.130;5.428;2022-12-07T02:35:09;1.30;;;0.60;;
73747;SDS011;62056;52.130;5.428;2022-12-07T02:37:55;2.97;;;0.65;;
73747;SDS011;62056;52.130;5.428;2022-12-07T02:40:33;1.87;;;0.80;;
73747;SDS011;62056;52.130;5.428;2022-12-07T02:43:06;2.85;;;0.60;;
73747;SDS011;62056;52.130;5.428;2022-12-07T02:45:39;2.88;;;0.52;;
73747;SDS011;62056;52.130;5.428;2022-12-07T02:48:08;3.00;;;0.47;;
73747;SDS011;62056;52.130;5.428;2022-12-07T02:50:38;4.40;;;0.60;;
73747;SDS011;62056;52.130;5.428;2022-12-07T02:53:04;4.43;;;0.50;;
73747;SDS011;62056;52.130;5.428;2022-12-07T02:55:33;3.15;;;0.30;;
73747;SDS011;62056;52.130;5.428;2022-12-07T02:58:10;4.35;;;0.50;;
73747;SDS011;62056;52.130;5.428;2022-12-07T03:00:51;2.35;;;0.40;;
73747;SDS011;62056;52.130;5.428;2022-12-07T03:03:26;2.15;;;0.70;;
73747;SDS011;62056;52.130;5.428;2022-12-07T03:06:04;2.83;;;0.30;;
73747;SDS011;62056;52.130;5.428;2022-12-07T03:08:51;3.63;;;0.52;;
73747;SDS011;62056;52.130;5.428;2022-12-07T03:14:00;3.70;;;0.70;;
73747;SDS011;62056;52.130;5.428;2022-12-07T03:16:35;2.70;;;0.57;;
73747;SDS011;62056;52.130;5.428;2022-12-07T03:19:14;5.63;;;0.30;;
73747;SDS011;62056;52.130;5.428;2022-12-07T03:21:44;2.92;;;0.52;;
73747;SDS011;62056;52.130;5.428;2022-12-07T03:24:17;4.25;;;0.40;;
73747;SDS011;62056;52.130;5.428;2022-12-07T03:26:48;2.10;;;0.40;;
73747;SDS011;62056;52.130;5.428;2022-12-07T03:29:34;1.73;;;0.40;;
73747;SDS011;62056;52.130;5.428;2022-12-07T03:32:06;3.87;;;0.40;;
73747;SDS011;62056;52.130;5.428;2022-12-07T03:34:42;4.00;;;0.55;;
73747;SDS011;62056;52.130;5.428;2022-12-07T03:37:26;5.07;;;0.43;;
73747;SDS011;62056;52.130;5.428;2022-12-07T03:42:58;6.63;;;0.55;;
73747;SDS011;62056;52.130;5.428;2022-12-07T03:45:37;1.53;;;0.37;;
73747;SDS011;62056;52.130;5.428;2022-12-07T03:50:38;1.55;;;0.40;;
73747;SDS011;62056;52.130;5.428;2022-12-07T03:53:19;6.68;;;0.68;;
73747;SDS011;62056;52.130;5.428;2022-12-07T03:55:52;3.40;;;0.60;;
73747;SDS011;62056;52.130;5.428;2022-12-07T03:58:20;4.40;;;0.60;;
73747;SDS011;62056;52.130;5.428;2022-12-07T04:00:49;1.20;;;0.40;;
73747;SDS011;62056;52.130;5.428;2022-12-07T04:03:17;4.68;;;0.50;;
73747;SDS011;62056;52.130;5.428;2022-12-07T04:05:43;3.55;;;0.57;;
73747;SDS011;62056;52.130;5.428;2022-12-07T04:08:11;1.50;;;0.57;;
73747;SDS011;62056;52.130;5.428;2022-12-07T04:10:37;5.90;;;0.47;;
73747;SDS011;62056;52.130;5.428;2022-12-07T04:13:04;3.75;;;0.50;;
73747;SDS011;62056;52.130;5.428;2022-12-07T04:15:30;3.03;;;0.47;;
73747;SDS011;62056;52.130;5.428;2022-12-07T04:17:57;3.65;;;1.42;;
73747;SDS011;62056;52.130;5.428;2022-12-07T04:20:24;7.43;;;0.40;;
73747;SDS011;62056;52.130;5.428;2022-12-07T04:22:51;1.60;;;0.40;;
73747;SDS011;62056;52.130;5.428;2022-12-07T04:25:17;4.30;;;0.57;;
73747;SDS011;62056;52.130;5.428;2022-12-07T04:27:44;3.95;;;0.40;;
73747;SDS011;62056;52.130;5.428;2022-12-07T04:30:11;3.05;;;0.52;;
73747;SDS011;62056;52.130;5.428;2022-12-07T04:32:38;3.25;;;0.43;;
73747;SDS011;62056;52.130;5.428;2022-12-07T04:35:05;2.90;;;0.40;;
73747;SDS011;62056;52.130;5.428;2022-12-07T04:37:32;3.30;;;0.40;;
73747;SDS011;62056;52.130;5.428;2022-12-07T04:39:59;2.05;;;0.55;;
73747;SDS011;62056;52.130;5.428;2022-12-07T04:42:26;11.63;;;0.50;;
73747;SDS011;62056;52.130;5.428;2022-12-07T04:44:54;2.67;;;0.30;;
73747;SDS011;62056;52.130;5.428;2022-12-07T04:47:21;6.30;;;0.70;;
73747;SDS011;62056;52.130;5.428;2022-12-07T04:49:47;5.07;;;0.40;;
73747;SDS011;62056;52.130;5.428;2022-12-07T04:52:14;2.00;;;0.28;;
73747;SDS011;62056;52.130;5.428;2022-12-07T04:54:40;3.63;;;0.30;;
73747;SDS011;62056;52.130;5.428;2022-12-07T04:57:07;1.77;;;0.38;;
73747;SDS011;62056;52.130;5.428;2022-12-07T04:59:34;3.40;;;0.50;;
73747;SDS011;62056;52.130;5.428;2022-12-07T05:02:04;3.10;;;0.50;;
73747;SDS011;62056;52.130;5.428;2022-12-07T05:04:30;2.45;;;0.60;;
73747;SDS011;62056;52.130;5.428;2022-12-07T05:06:57;2.75;;;0.40;;
73747;SDS011;62056;52.130;5.428;2022-12-07T05:09:23;1.60;;;0.25;;
73747;SDS011;62056;52.130;5.428;2022-12-07T05:11:50;2.00;;;0.87;;
73747;SDS011;62056;52.130;5.428;2022-12-07T05:14:18;3.08;;;0.30;;
73747;SDS011;62056;52.130;5.428;2022-12-07T05:16:51;3.88;;;0.40;;
73747;SDS011;62056;52.130;5.428;2022-12-07T05:19:19;1.75;;;0.60;;
73747;SDS011;62056;52.130;5.428;2022-12-07T05:21:46;5.78;;;0.32;;
73747;SDS011;62056;52.130;5.428;2022-12-07T05:24:13;3.33;;;0.30;;
73747;SDS011;62056;52.130;5.428;2022-12-07T05:26:42;3.30;;;0.47;;
73747;SDS011;62056;52.130;5.428;2022-12-07T05:29:13;2.10;;;0.30;;
73747;SDS011;62056;52.130;5.428;2022-12-07T05:31:41;2.13;;;0.32;;
73747;SDS011;62056;52.130;5.428;2022-12-07T05:34:09;4.85;;;0.30;;
73747;SDS011;62056;52.130;5.428;2022-12-07T05:36:36;1.80;;;0.23;;
73747;SDS011;62056;52.130;5.428;2022-12-07T05:39:03;2.28;;;0.43;;
73747;SDS011;62056;52.130;5.428;2022-12-07T05:41:30;4.72;;;0.20;;
73747;SDS011;62056;52.130;5.428;2022-12-07T05:44:15;1.38;;;1.10;;
73747;SDS011;62056;52.130;5.428;2022-12-07T05:46:42;3.13;;;0.25;;
73747;SDS011;62056;52.130;5.428;2022-12-07T05:49:08;6.50;;;0.40;;
73747;SDS011;62056;52.130;5.428;2022-12-07T05:51:37;0.77;;;0.20;;
73747;SDS011;62056;52.130;5.428;2022-12-07T05:54:03;1.98;;;0.30;;
73747;SDS011;62056;52.130;5.428;2022-12-07T05:56:30;5.20;;;0.30;;
73747;SDS011;62056;52.130;5.428;2022-12-07T05:58:56;0.65;;;0.20;;
73747;SDS011;62056;52.130;5.428;2022-12-07T06:01:41;2.07;;;0.30;;
73747;SDS011;62056;52.130;5.428;2022-12-07T06:04:10;2.40;;;0.28;;
73747;SDS011;62056;52.130;5.428;2022-12-07T06:06:37;3.30;;;0.20;;
73747;SDS011;62056;52.130;5.428;2022-12-07T06:09:04;2.53;;;0.30;;
73747;SDS011;62056;52.130;5.428;2022-12-07T06:11:31;3.25;;;0.60;;
73747;SDS011;62056;52.130;5.428;2022-12-07T06:14:16;2.90;;;0.20;;
73747;SDS011;62056;52.130;5.428;2022-12-07T06:16:43;1.15;;;0.28;;
73747;SDS011;62056;52.130;5.428;2022-12-07T06:19:09;11.75;;;0.30;;
73747;SDS011;62056;52.130;5.428;2022-12-07T06:21:36;3.53;;;0.30;;
73747;SDS011;62056;52.130;5.428;2022-12-07T06:24:03;3.55;;;0.30;;
73747;SDS011;62056;52.130;5.428;2022-12-07T06:26:30;4.03;;;0.50;;
73747;SDS011;62056;52.130;5.428;2022-12-07T06:28:57;6.88;;;1.27;;
73747;SDS011;62056;52.130;5.428;2022-12-07T06:31:23;1.63;;;0.30;;
73747;SDS011;62056;52.130;5.428;2022-12-07T06:33:50;2.80;;;0.22;;
73747;SDS011;62056;52.130;5.428;2022-12-07T06:36:17;1.58;;;0.40;;
73747;SDS011;62056;52.130;5.428;2022-12-07T06:38:52;1.63;;;0.40;;
73747;SDS011;62056;52.130;5.428;2022-12-07T06:41:19;4.45;;;0.32;;
73747;SDS011;62056;52.130;5.428;2022-12-07T06:43:47;7.65;;;0.30;;
73747;SDS011;62056;52.130;5.428;2022-12-07T06:46:21;2.78;;;0.40;;
73747;SDS011;62056;52.130;5.428;2022-12-07T06:48:48;2.85;;;0.20;;
73747;SDS011;62056;52.130;5.428;2022-12-07T06:51:14;3.13;;;0.60;;
73747;SDS011;62056;52.130;5.428;2022-12-07T06:53:42;8.82;;;0.50;;
73747;SDS011;62056;52.130;5.428;2022-12-07T06:56:11;3.85;;;0.47;;
73747;SDS011;62056;52.130;5.428;2022-12-07T06:58:41;1.48;;;0.28;;
73747;SDS011;62056;52.130;5.428;2022-12-07T07:01:14;2.42;;;0.30;;
73747;SDS011;62056;52.130;5.428;2022-12-07T07:03:44;1.63;;;0.40;;
73747;SDS011;62056;52.130;5.428;2022-12-07T07:06:12;3.97;;;0.32;;
73747;SDS011;62056;52.130;5.428;2022-12-07T07:08:39;1.67;;;0.57;;
73747;SDS011;62056;52.130;5.428;2022-12-07T07:11:07;3.58;;;0.70;;
73747;SDS011;62056;52.130;5.428;2022-12-07T07:13:34;9.57;;;0.73;;
73747;SDS011;62056;52.130;5.428;2022-12-07T07:16:01;6.50;;;0.90;;
73747;SDS011;62056;52.130;5.428;2022-12-07T07:18:28;2.88;;;0.40;;
73747;SDS011;62056;52.130;5.428;2022-12-07T07:20:55;2.47;;;0.30;;
73747;SDS011;62056;52.130;5.428;2022-12-07T07:23:21;2.47;;;0.30;;
73747;SDS011;62056;52.130;5.428;2022-12-07T07:25:48;4.50;;;0.30;;
73747;SDS011;62056;52.130;5.428;2022-12-07T07:28:15;4.13;;;0.70;;
73747;SDS011;62056;52.130;5.428;2022-12-07T07:30:42;9.93;;;0.50;;
73747;SDS011;62056;52.130;5.428;2022-12-07T07:33:09;3.35;;;0.60;;
73747;SDS011;62056;52.130;5.428;2022-12-07T07:35:36;3.88;;;0.80;;
73747;SDS011;62056;52.130;5.428;2022-12-07T07:38:03;5.32;;;0.50;;
73747;SDS011;62056;52.130;5.428;2022-12-07T07:40:30;4.87;;;0.60;;
73747;SDS011;62056;52.130;5.428;2022-12-07T07:42:57;9.13;;;0.55;;
73747;SDS011;62056;52.130;5.428;2022-12-07T07:45:25;5.65;;;0.57;;
73747;SDS011;62056;52.130;5.428;2022-12-07T07:47:55;2.10;;;0.73;;
73747;SDS011;62056;52.130;5.428;2022-12-07T07:50:22;2.97;;;0.43;;
73747;SDS011;62056;52.130;5.428;2022-12-07T07:52:49;3.93;;;1.00;;
73747;SDS011;62056;52.130;5.428;2022-12-07T07:55:17;4.20;;;0.55;;
73747;SDS011;62056;52.130;5.428;2022-12-07T07:57:44;3.25;;;0.50;;
73747;SDS011;62056;52.130;5.428;2022-12-07T08:00:19;5.45;;;0.70;;
73747;SDS011;62056;52.130;5.428;2022-12-07T08:02:46;5.18;;;0.80;;
73747;SDS011;62056;52.130;5.428;2022-12-07T08:05:13;4.10;;;0.97;;
73747;SDS011;62056;52.130;5.428;2022-12-07T08:07:40;7.85;;;1.30;;
73747;SDS011;62056;52.130;5.428;2022-12-07T08:10:08;3.03;;;0.57;;
73747;SDS011;62056;52.130;5.428;2022-12-07T08:12:41;5.75;;;0.85;;
73747;SDS011;62056;52.130;5.428;2022-12-07T08:15:30;6.68;;;0.52;;
73747;SDS011;62056;52.130;5.428;2022-12-07T08:18:03;3.83;;;0.70;;
73747;SDS011;62056;52.130;5.428;2022-12-07T08:20:30;8.43;;;0.73;;
73747;SDS011;62056;52.130;5.428;2022-12-07T08:22:59;5.30;;;0.60;;
73747;SDS011;62056;52.130;5.428;2022-12-07T08:25:26;1.65;;;0.40;;
73747;SDS011;62056;52.130;5.428;2022-12-07T08:27:53;3.35;;;0.43;;
73747;SDS011;62056;52.130;5.428;2022-12-07T08:30:20;5.03;;;0.90;;
73747;SDS011;62056;52.130;5.428;2022-12-07T08:32:48;4.63;;;0.55;;
73747;SDS011;62056;52.130;5.428;2022-12-07T08:35:15;4.90;;;0.50;;
73747;SDS011;62056;52.130;5.428;2022-12-07T08:37:42;2.60;;;0.60;;
73747;SDS011;62056;52.130;5.428;2022-12-07T08:40:09;1.77;;;0.30;;
73747;SDS011;62056;52.130;5.428;2022-12-07T08:42:42;6.20;;;0.60;;
73747;SDS011;62056;52.130;5.428;2022-12-07T08:45:12;3.35;;;0.40;;
73747;SDS011;62056;52.130;5.428;2022-12-07T08:47:40;2.28;;;0.50;;
73747;SDS011;62056;52.130;5.428;2022-12-07T08:50:10;4.20;;;0.55;;
73747;SDS011;62056;52.130;5.428;2022-12-07T08:52:38;4.15;;;0.30;;
73747;SDS011;62056;52.130;5.428;2022-12-07T08:55:09;5.33;;;0.47;;
73747;SDS011;62056;52.130;5.428;2022-12-07T08:57:39;4.20;;;0.50;;
73747;SDS011;62056;52.130;5.428;2022-12-07T09:00:09;5.85;;;0.50;;
73747;SDS011;62056;52.130;5.428;2022-12-07T09:02:38;1.70;;;0.63;;
73747;SDS011;62056;52.130;5.428;2022-12-07T09:05:05;3.25;;;0.60;;
73747;SDS011;62056;52.130;5.428;2022-12-07T09:07:40;3.90;;;0.60;;
73747;SDS011;62056;52.130;5.428;2022-12-07T09:10:09;2.28;;;0.73;;
73747;SDS011;62056;52.130;5.428;2022-12-07T09:12:36;4.07;;;0.70;;
73747;SDS011;62056;52.130;5.428;2022-12-07T09:15:03;4.05;;;0.80;;
73747;SDS011;62056;52.130;5.428;2022-12-07T09:17:31;4.65;;;1.35;;
73747;SDS011;62056;52.130;5.428;2022-12-07T09:20:10;5.47;;;1.17;;
73747;SDS011;62056;52.130;5.428;2022-12-07T09:22:37;3.05;;;0.88;;
73747;SDS011;62056;52.130;5.428;2022-12-07T09:25:04;3.42;;;0.88;;
73747;SDS011;62056;52.130;5.428;2022-12-07T09:27:31;2.03;;;0.40;;
73747;SDS011;62056;52.130;5.428;2022-12-07T09:29:58;4.45;;;0.47;;
73747;SDS011;62056;52.130;5.428;2022-12-07T09:32:27;2.50;;;0.57;;
73747;SDS011;62056;52.130;5.428;2022-12-07T09:34:54;6.78;;;0.50;;
73747;SDS011;62056;52.130;5.428;2022-12-07T09:37:25;1.67;;;0.30;;
73747;SDS011;62056;52.130;5.428;2022-12-07T09:39:55;2.22;;;0.40;;
73747;SDS011;62056;52.130;5.428;2022-12-07T09:42:30;3.72;;;0.50;;
73747;SDS011;62056;52.130;5.428;2022-12-07T09:45:07;2.77;;;0.33;;
73747;SDS011;62056;52.130;5.428;2022-12-07T09:47:42;1.88;;;0.40;;
73747;SDS011;62056;52.130;5.428;2022-12-07T09:50:13;6.15;;;0.30;;
73747;SDS011;62056;52.130;5.428;2022-12-07T09:52:43;1.77;;;0.20;;
73747;SDS011;62056;52.130;5.428;2022-12-07T09:55:12;4.13;;;0.43;;
73747;SDS011;62056;52.130;5.428;2022-12-07T09:57:41;3.67;;;0.43;;
73747;SDS011;62056;52.130;5.428;2022-12-07T10:00:16;3.72;;;0.52;;
73747;SDS011;62056;52.130;5.428;2022-12-07T10:02:44;2.97;;;0.43;;
73747;SDS011;62056;52.130;5.428;2022-12-07T10:05:16;1.92;;;0.30;;
73747;SDS011;62056;52.130;5.428;2022-12-07T10:07:49;1.25;;;0.30;;
73747;SDS011;62056;52.130;5.428;2022-12-07T10:10:24;4.20;;;0.53;;
73747;SDS011;62056;52.130;5.428;2022-12-07T10:12:56;2.30;;;0.40;;
73747;SDS011;62056;52.130;5.428;2022-12-07T10:15:48;7.65;;;0.40;;
73747;SDS011;62056;52.130;5.428;2022-12-07T10:18:16;1.70;;;0.40;;
73747;SDS011;62056;52.130;5.428;2022-12-07T10:20:44;5.65;;;0.47;;
73747;SDS011;62056;52.130;5.428;2022-12-07T10:23:16;3.50;;;1.03;;
73747;SDS011;62056;52.130;5.428;2022-12-07T10:25:44;3.88;;;0.73;;
73747;SDS011;62056;52.130;5.428;2022-12-07T10:28:13;1.92;;;0.43;;
73747;SDS011;62056;52.130;5.428;2022-12-07T10:33:37;4.70;;;0.40;;
73747;SDS011;62056;52.130;5.428;2022-12-07T10:36:16;3.67;;;0.50;;
73747;SDS011;62056;52.130;5.428;2022-12-07T10:38:48;1.65;;;0.45;;
73747;SDS011;62056;52.130;5.428;2022-12-07T10:41:17;5.10;;;0.40;;
73747;SDS011;62056;52.130;5.428;2022-12-07T10:43:57;2.33;;;0.35;;
73747;SDS011;62056;52.130;5.428;2022-12-07T10:46:39;2.60;;;0.32;;
73747;SDS011;62056;52.130;5.428;2022-12-07T10:57:14;4.72;;;0.60;;
73747;SDS011;62056;52.130;5.428;2022-12-07T11:05:45;2.08;;;0.50;;
73747;SDS011;62056;52.130;5.428;2022-12-07T11:08:33;4.15;;;0.40;;
73747;SDS011;62056;52.130;5.428;2022-12-07T11:16:52;3.17;;;0.40;;
73747;SDS011;62056;52.130;5.428;2022-12-07T11:19:29;2.08;;;0.40;;
73747;SDS011;62056;52.130;5.428;2022-12-07T11:22:10;4.30;;;0.93;;
73747;SDS011;62056;52.130;5.428;2022-12-07T11:30:12;3.60;;;0.50;;
73747;SDS011;62056;52.130;5.428;2022-12-07T11:33:04;4.20;;;0.57;;
73747;SDS011;62056;52.130;5.428;2022-12-07T11:41:19;3.20;;;0.68;;
73747;SDS011;62056;52.130;5.428;2022-12-07T11:44:07;4.30;;;0.50;;
73747;SDS011;62056;52.130;5.428;2022-12-07T11:51:46;2.33;;;0.70;;
73747;SDS011;62056;52.130;5.428;2022-12-07T11:54:25;7.35;;;0.68;;
73747;SDS011;62056;52.130;5.428;2022-12-07T11:56:54;4.53;;;1.00;;
73747;SDS011;62056;52.130;5.428;2022-12-07T12:04:47;1.50;;;0.30;;
73747;SDS011;62056;52.130;5.428;2022-12-07T12:07:23;1.55;;;0.30;;
73747;SDS011;62056;52.130;5.428;2022-12-07T12:10:21;3.53;;;0.70;;
73747;SDS011;62056;52.130;5.428;2022-12-07T12:15:52;2.08;;;0.40;;
73747;SDS011;62056;52.130;5.428;2022-12-07T12:21:17;3.40;;;0.47;;
73747;SDS011;62056;52.130;5.428;2022-12-07T12:24:12;3.77;;;0.50;;
73747;SDS011;62056;52.130;5.428;2022-12-07T12:26:54;4.70;;;0.60;;
73747;SDS011;62056;52.130;5.428;2022-12-07T12:29:33;1.17;;;0.30;;
73747;SDS011;62056;52.130;5.428;2022-12-07T12:32:07;1.98;;;0.47;;
73747;SDS011;62056;52.130;5.428;2022-12-07T12:34:42;2.47;;;0.47;;
73747;SDS011;62056;52.130;5.428;2022-12-07T12:42:45;3.72;;;0.40;;
73747;SDS011;62056;52.130;5.428;2022-12-07T12:45:29;1.17;;;0.25;;
73747;SDS011;62056;52.130;5.428;2022-12-07T12:47:58;2.03;;;0.60;;
73747;SDS011;62056;52.130;5.428;2022-12-07T12:50:34;5.77;;;0.50;;
73747;SDS011;62056;52.130;5.428;2022-12-07T12:53:12;3.95;;;0.50;;
73747;SDS011;62056;52.130;5.428;2022-12-07T12:58:35;4.05;;;0.52;;
73747;SDS011;62056;52.130;5.428;2022-12-07T13:04:17;1.53;;;0.43;;
73747;SDS011;62056;52.130;5.428;2022-12-07T13:06:53;1.55;;;0.40;;
73747;SDS011;62056;52.130;5.428;2022-12-07T13:09:25;1.27;;;0.20;;
73747;SDS011;62056;52.130;5.428;2022-12-07T13:12:01;2.08;;;0.35;;
73747;SDS011;62056;52.130;5.428;2022-12-07T13:17:11;5.97;;;0.30;;
73747;SDS011;62056;52.130;5.428;2022-12-07T13:22:43;0.47;;;0.20;;
73747;SDS011;62056;52.130;5.428;2022-12-07T13:25:33;2.20;;;0.95;;
73747;SDS011;62056;52.130;5.428;2022-12-07T13:28:09;3.75;;;0.20;;
73747;SDS011;62056;52.130;5.428;2022-12-07T13:30:44;0.63;;;0.20;;
73747;SDS011;62056;52.130;5.428;2022-12-07T13:33:13;0.80;;;0.25;;
73747;SDS011;62056;52.130;5.428;2022-12-07T13:35:45;1.25;;;0.20;;
73747;SDS011;62056;52.130;5.428;2022-12-07T13:38:22;0.45;;;0.20;;
73747;SDS011;62056;52.130;5.428;2022-12-07T13:41:01;0.32;;;0.20;;
73747;SDS011;62056;52.130;5.428;2022-12-07T13:43:44;3.70;;;0.60;;
73747;SDS011;62056;52.130;5.428;2022-12-07T13:46:13;1.85;;;0.40;;
73747;SDS011;62056;52.130;5.428;2022-12-07T13:48:46;0.90;;;0.30;;
73747;SDS011;62056;52.130;5.428;2022-12-07T13:51:24;1.70;;;0.40;;
73747;SDS011;62056;52.130;5.428;2022-12-07T13:54:08;2.17;;;0.60;;
73747;SDS011;62056;52.130;5.428;2022-12-07T13:56:37;1.40;;;0.60;;
73747;SDS011;62056;52.130;5.428;2022-12-07T13:59:10;2.85;;;1.05;;
73747;SDS011;62056;52.130;5.428;2022-12-07T14:01:44;2.83;;;0.73;;
73747;SDS011;62056;52.130;5.428;2022-12-07T14:07:26;2.72;;;0.63;;
73747;SDS011;62056;52.130;5.428;2022-12-07T14:12:22;6.55;;;1.17;;
73747;SDS011;62056;52.130;5.428;2022-12-07T14:14:50;4.25;;;0.60;;
73747;SDS011;62056;52.130;5.428;2022-12-07T14:17:18;1.85;;;0.63;;
73747;SDS011;62056;52.130;5.428;2022-12-07T14:27:55;2.83;;;0.60;;
73747;SDS011;62056;52.130;5.428;2022-12-07T14:30:26;5.93;;;1.05;;
73747;SDS011;62056;52.130;5.428;2022-12-07T14:32:59;2.40;;;0.50;;
73747;SDS011;62056;52.130;5.428;2022-12-07T14:35:28;2.13;;;0.60;;
73747;SDS011;62056;52.130;5.428;2022-12-07T14:37:57;3.05;;;0.50;;
73747;SDS011;62056;52.130;5.428;2022-12-07T14:40:25;1.48;;;0.45;;
73747;SDS011;62056;52.130;5.428;2022-12-07T14:42:58;1.25;;;0.30;;
73747;SDS011;62056;52.130;5.428;2022-12-07T14:45:28;6.22;;;0.52;;
73747;SDS011;62056;52.130;5.428;2022-12-07T14:47:55;4.43;;;0.70;;
73747;SDS011;62056;52.130;5.428;2022-12-07T14:50:47;2.20;;;0.40;;
73747;SDS011;62056;52.130;5.428;2022-12-07T14:53:39;2.10;;;0.40;;
73747;SDS011;62056;52.130;5.428;2022-12-07T14:56:09;3.75;;;0.40;;
73747;SDS011;62056;52.130;5.428;2022-12-07T14:58:36;3.80;;;0.55;;
73747;SDS011;62056;52.130;5.428;2022-12-07T15:01:05;1.90;;;0.47;;
73747;SDS011;62056;52.130;5.428;2022-12-07T15:03:32;1.42;;;0.30;;
73747;SDS011;62056;52.130;5.428;2022-12-07T15:06:01;1.05;;;0.30;;
73747;SDS011;62056;52.130;5.428;2022-12-07T15:08:28;1.40;;;0.32;;
73747;SDS011;62056;52.130;5.428;2022-12-07T15:10:54;4.72;;;0.30;;
73747;SDS011;62056;52.130;5.428;2022-12-07T15:13:21;2.40;;;0.30;;
73747;SDS011;62056;52.130;5.428;2022-12-07T15:16:10;3.33;;;0.30;;
73747;SDS011;62056;52.130;5.428;2022-12-07T15:18:41;3.95;;;0.55;;
73747;SDS011;62056;52.130;5.428;2022-12-07T15:21:28;1.88;;;0.30;;
73747;SDS011;62056;52.130;5.428;2022-12-07T15:23:55;1.95;;;0.20;;
73747;SDS011;62056;52.130;5.428;2022-12-07T15:26:25;2.10;;;0.30;;
73747;SDS011;62056;52.130;5.428;2022-12-07T15:28:52;1.10;;;0.30;;
73747;SDS011;62056;52.130;5.428;2022-12-07T15:31:20;0.60;;;0.20;;
73747;SDS011;62056;52.130;5.428;2022-12-07T15:34:07;3.92;;;0.50;;
73747;SDS011;62056;52.130;5.428;2022-12-07T15:36:35;1.20;;;0.50;;
73747;SDS011;62056;52.130;5.428;2022-12-07T15:39:02;2.23;;;0.40;;
73747;SDS011;62056;52.130;5.428;2022-12-07T15:41:39;1.90;;;0.30;;
73747;SDS011;62056;52.130;5.428;2022-12-07T15:44:11;3.53;;;0.50;;
73747;SDS011;62056;52.130;5.428;2022-12-07T15:46:57;2.15;;;0.40;;
73747;SDS011;62056;52.130;5.428;2022-12-07T15:49:25;2.05;;;0.40;;
73747;SDS011;62056;52.130;5.428;2022-12-07T15:51:51;3.63;;;0.53;;
73747;SDS011;62056;52.130;5.428;2022-12-07T15:54:19;2.88;;;0.40;;
73747;SDS011;62056;52.130;5.428;2022-12-07T15:56:48;2.55;;;0.55;;
73747;SDS011;62056;52.130;5.428;2022-12-07T15:59:16;2.67;;;0.88;;
73747;SDS011;62056;52.130;5.428;2022-12-07T16:01:43;4.68;;;1.02;;
73747;SDS011;62056;52.130;5.428;2022-12-07T16:04:10;4.03;;;2.20;;
73747;SDS011;62056;52.130;5.428;2022-12-07T16:06:37;5.43;;;2.55;;
73747;SDS011;62056;52.130;5.428;2022-12-07T16:09:04;5.72;;;2.03;;
73747;SDS011;62056;52.130;5.428;2022-12-07T16:11:31;3.42;;;2.30;;
73747;SDS011;62056;52.130;5.428;2022-12-07T16:13:58;8.05;;;2.92;;
73747;SDS011;62056;52.130;5.428;2022-12-07T16:16:25;3.63;;;2.40;;
73747;SDS011;62056;52.130;5.428;2022-12-07T16:18:53;4.72;;;2.30;;
73747;SDS011;62056;52.130;5.428;2022-12-07T16:21:20;5.70;;;2.58;;
73747;SDS011;62056;52.130;5.428;2022-12-07T16:23:50;8.73;;;2.70;;
73747;SDS011;62056;52.130;5.428;2022-12-07T16:26:18;4.95;;;3.20;;
73747;SDS011;62056;52.130;5.428;2022-12-07T16:28:51;2.73;;;2.20;;
73747;SDS011;62056;52.130;5.428;2022-12-07T16:31:19;2.85;;;2.10;;
73747;SDS011;62056;52.130;5.428;2022-12-07T16:33:47;6.40;;;3.25;;
73747;SDS011;62056;52.130;5.428;2022-12-07T16:36:15;6.03;;;2.15;;
73747;SDS011;62056;52.130;5.428;2022-12-07T16:39:04;2.65;;;1.60;;
73747;SDS011;62056;52.130;5.428;2022-12-07T16:41:31;2.67;;;1.70;;
73747;SDS011;62056;52.130;5.428;2022-12-07T16:44:01;3.78;;;2.20;;
73747;SDS011;62056;52.130;5.428;2022-12-07T16:46:34;6.15;;;2.22;;
73747;SDS011;62056;52.130;5.428;2022-12-07T16:49:02;2.65;;;1.60;;
73747;SDS011;62056;52.130;5.428;2022-12-07T16:51:30;6.20;;;2.22;;
73747;SDS011;62056;52.130;5.428;2022-12-07T16:53:57;6.47;;;2.47;;
73747;SDS011;62056;52.130;5.428;2022-12-07T16:56:23;7.72;;;3.00;;